Palm Springs, CA

10:37 PM PDT on July 23, 2017 (GMT -0700)
PS Ruth Hardy Park @ Fruit Loop | | Change Station

Elev 502 ft 33.84 °N, 116.54 °W | Updated 36 seconds ago

Clear
Clear
88.9 °F
Feels Like 89 °F
N
10.0
Wind Variable Wind from NNW

Today
High -- | Low -- °F
--% Chance of Precip.
Yesterday
High -- | Low -- °F
Precip. -- in
Pressure 29.76 in
Visibility 10.0 miles
Clouds Clear
Heat Index 89 °F
Dew Point 61 °F
Humidity 40%
Rainfall 0.00 in
Snow Depth Not available.
5:51 AM 7:53 PM
New Moon, 1% visible
METAR KPSP 240453Z 34012KT 10SM CLR 36/11 A2978 RMK AO2 SLP078 T03610111
Pressure 29.76 in
Visibility 10.0 miles
Clouds Clear
Heat Index 89 °F
Dew Point 61 °F
Humidity 40%
Rainfall 0.00 in
Snow Depth Not available.
5:51 AM 7:53 PM
New Moon, 1% visible
METAR KPSP 240453Z 34012KT 10SM CLR 36/11 A2978 RMK AO2 SLP078 T03610111

Get Severe Weather Alerts

Thanks for signing up!

Be on the lookout for a verification email in your inbox.

You'll start receiving the daily forecast at 6 AM.

×

10-Day Weather Forecast

Almanac

Astronomy

Jul. 23, 2017 Rise Set
Actual Time
Civil Twilight
Nautical Twilight
Astronomical Twilight
Moon
Length of Visible Light
Length of Day
Tomorrow will be .
, % of the Moon is Illuminated

Today's Extremes

State Highs State Lows

Community

WunderPhotos

Category 6

Welcome to Category 6. This is the collective home for Weather Underground's featured writeups by Dr. Jeff Masters (right), Bob Henson (left), Chris Burt, and other regular contributors.

Nearby

Air Quality

  Air Quality AQ Index Pollutant
Not available.

Snow Depth

Station Depth Elevation

Earthquake Activity

City Distance Mag. Time & Date
Minimum magnitude displayed is 2.5.

Coastal Water Temperatures

Place Temperature

Stations

Nearby Weather Stations

Station Location Temp. Windchill Dew Point Humidity Wind Precip. Elev Updated Type
                   

Watches & Warnings

There are currently no watches in effect.